Time;durP1;ratioP1;P1;durP2;ratioP2;P2;SDS_P1;SDS_P2;PMS_P1;PMS_P2;Temp;Humidity;BMP_temperature;BMP_pressure;BME280_temperature;BME280_humidity;BME280_pressure;Samples;Min_cycle;Max_cycle;Signal;HPM_P1;HPM_P2
2022/03/05 01:49:51;;;;;;;23.63;10.25;;;;;;;-0.50;100.00;94240.31;5248451;23;20052;-86
2022/03/05 01:52:17;;;;;;;23.75;11.02;;;;;;;-0.31;100.00;94230.97;4955907;28;20039;-86
2022/03/05 01:54:42;;;;;;;29.90;11.05;;;;;;;-0.46;100.00;94231.19;4954919;29;20036;-86
2022/03/05 01:57:10;;;;;;;25.65;10.88;;;;;;;-0.39;100.00;94227.84;4940252;29;20119;-86
2022/03/05 01:59:36;;;;;;;27.92;11.13;;;;;;;-0.38;100.00;94232.75;4957790;29;20114;-87
2022/03/05 02:02:02;;;;;;;21.63;10.30;;;;;;;-0.29;100.00;94236.72;4954522;29;20040;-87
2022/03/05 02:04:28;;;;;;;27.88;11.20;;;;;;;-0.37;100.00;94233.56;4946786;29;20397;-86
2022/03/05 02:06:53;;;;;;;26.63;11.60;;;;;;;-0.30;100.00;94222.25;4945620;29;20039;-86
2022/03/05 02:09:19;;;;;;;24.45;10.80;;;;;;;-0.41;100.00;94224.69;4934910;29;20048;-86
2022/03/05 02:11:44;;;;;;;22.92;9.63;;;;;;;-0.28;100.00;94224.66;4940164;29;20107;-86
2022/03/05 02:14:10;;;;;;;30.85;11.23;;;;;;;-0.36;100.00;94217.13;4957871;29;20040;-86
2022/03/05 02:16:38;;;;;;;29.85;10.75;;;;;;;-0.35;100.00;94224.66;4957830;29;20110;-87
2022/03/05 02:19:05;;;;;;;28.70;11.15;;;;;;;-0.35;100.00;94216.94;4957999;29;20452;-86
2022/03/05 02:21:30;;;;;;;28.35;11.15;;;;;;;-0.43;100.00;94228.25;4956819;29;20500;-86
2022/03/05 02:23:56;;;;;;;30.83;11.63;;;;;;;-0.44;100.00;94221.50;4957283;29;20130;-86
2022/03/05 02:26:22;;;;;;;26.13;11.98;;;;;;;-0.40;100.00;94215.97;4957404;29;20032;-86
2022/03/05 02:28:48;;;;;;;32.30;11.77;;;;;;;-0.44;100.00;94223.28;4941867;29;20035;-87
2022/03/05 02:31:14;;;;;;;25.48;11.38;;;;;;;-0.51;100.00;94220.72;4942640;29;20051;-87
2022/03/05 02:33:41;;;;;;;25.10;11.13;;;;;;;-0.65;100.00;94214.03;4957866;29;20043;-87
2022/03/05 02:36:07;;;;;;;24.23;10.70;;;;;;;-0.83;100.00;94218.00;4957634;29;20416;-87
2022/03/05 02:38:32;;;;;;;40.25;12.38;;;;;;;-0.92;100.00;94214.03;4957358;29;20073;-87
2022/03/05 02:40:57;;;;;;;30.05;11.85;;;;;;;-1.01;100.00;94219.38;4942431;29;20405;-87
2022/03/05 02:43:25;;;;;;;28.90;12.57;;;;;;;-1.05;100.00;94218.19;4957416;29;20334;-87
2022/03/05 02:45:51;;;;;;;32.67;12.80;;;;;;;-1.19;100.00;94209.72;4925835;29;20087;-87
2022/03/05 02:48:17;;;;;;;32.38;12.25;;;;;;;-1.25;100.00;94218.19;4941365;29;20028;-87
2022/03/05 02:50:44;;;;;;;29.10;12.25;;;;;;;-1.25;100.00;94222.56;4957051;29;20119;-87
2022/03/05 02:53:10;;;;;;;31.30;12.65;;;;;;;-1.34;100.00;94217.59;4957183;29;20150;-86
2022/03/05 02:55:35;;;;;;;30.08;13.45;;;;;;;-1.38;100.00;94224.13;4957183;29;20107;-87
2022/03/05 02:58:02;;;;;;;29.35;12.65;;;;;;;-1.42;100.00;94217.78;4957171;29;20035;-87
2022/03/05 03:00:27;;;;;;;33.80;12.82;;;;;;;-1.36;100.00;94217.00;4940816;29;20032;-87
2022/03/05 03:02:53;;;;;;;28.52;12.45;;;;;;;-1.08;100.00;94221.16;4956723;28;20336;-86
2022/03/05 03:05:19;;;;;;;30.67;12.95;;;;;;;-1.33;100.00;94221.75;4940631;29;20039;-87
2022/03/05 03:07:45;;;;;;;33.33;11.82;;;;;;;-1.38;100.00;94216.41;4957133;29;20440;-87
2022/03/05 03:10:12;;;;;;;29.95;11.52;;;;;;;-1.27;100.00;94217.59;4956388;29;20087;-87
2022/03/05 03:12:38;;;;;;;31.58;13.65;;;;;;;-1.36;100.00;94214.44;4957136;29;20031;-86
2022/03/05 03:15:08;;;;;;;30.30;11.25;;;;;;;-1.39;100.00;94221.72;4940757;29;20030;-87
2022/03/05 03:17:47;;;;;;;37.05;12.45;;;;;;;-1.59;100.00;94219.94;4957029;29;20027;-87
2022/03/05 03:20:15;;;;;;;29.55;11.95;;;;;;;-1.64;100.00;94217.94;4940306;29;20064;-87
2022/03/05 03:22:40;;;;;;;30.98;12.55;;;;;;;-1.53;100.00;94216.56;4940568;29;20031;-87
2022/03/05 03:25:07;;;;;;;40.08;13.10;;;;;;;-1.55;100.00;94222.91;4956551;29;20098;-87
2022/03/05 03:27:32;;;;;;;26.20;11.95;;;;;;;-1.57;100.00;94226.47;4940480;29;20034;-86
2022/03/05 03:29:58;;;;;;;32.20;12.88;;;;;;;-1.55;100.00;94225.47;4955916;29;20419;-86
2022/03/05 03:32:23;;;;;;;33.38;12.68;;;;;;;-1.61;100.00;94230.41;4941660;29;20054;-87
2022/03/05 03:34:49;;;;;;;30.42;12.18;;;;;;;-1.42;100.00;94230.66;4941709;29;20036;-87
2022/03/05 03:37:15;;;;;;;33.38;13.73;;;;;;;-1.62;100.00;94230.59;4941838;29;20445;-87
2022/03/05 03:39:40;;;;;;;33.45;12.38;;;;;;;-1.71;100.00;94230.00;4956209;29;20091;-87
2022/03/05 03:42:06;;;;;;;35.22;12.73;;;;;;;-1.73;100.00;94232.75;4956301;29;20118;-87
2022/03/05 03:44:31;;;;;;;54.47;14.05;;;;;;;-1.77;100.00;94230.75;4941667;29;20385;-87
2022/03/05 03:46:57;;;;;;;36.72;14.70;;;;;;;-1.72;100.00;94230.97;4941592;29;20039;-87
2022/03/05 03:49:23;;;;;;;41.90;14.38;;;;;;;-1.58;100.00;94230.03;4940228;29;20114;-86
2022/03/05 03:51:49;;;;;;;31.63;12.15;;;;;;;-1.69;100.00;94233.16;4939742;29;20090;-87
2022/03/05 03:54:14;;;;;;;34.63;13.27;;;;;;;-1.68;100.00;94229.59;4940313;29;20340;-87
2022/03/05 03:56:40;;;;;;;36.35;13.73;;;;;;;-1.66;100.00;94226.81;4941504;29;20039;-87
2022/03/05 03:59:05;;;;;;;37.20;14.18;;;;;;;-1.72;100.00;94223.28;4941444;29;20063;-87
2022/03/05 04:01:31;;;;;;;38.15;14.18;;;;;;;-1.78;100.00;94227.41;4940023;29;20031;-86
2022/03/05 04:03:56;;;;;;;41.15;14.75;;;;;;;-1.73;100.00;94227.59;4955505;29;20087;-87
2022/03/05 04:06:21;;;;;;;36.15;13.77;;;;;;;-1.74;100.00;94228.59;4941074;29;20031;-87
2022/03/05 04:08:47;;;;;;;37.75;15.02;;;;;;;-1.64;100.00;94230.78;4940033;29;20344;-87
2022/03/05 04:11:18;;;;;;;40.90;13.80;;;;;;;-1.64;100.00;94227.44;4939607;29;20123;-87
2022/03/05 04:13:44;;;;;;;42.05;14.30;;;;;;;-1.72;100.00;94228.41;4955602;29;20429;-87
2022/03/05 04:16:09;;;;;;;40.65;14.80;;;;;;;-1.82;100.00;94227.97;4955478;29;20488;-87
2022/03/05 04:18:40;;;;;;;37.03;14.88;;;;;;;-1.81;100.00;94224.44;4939804;29;20031;-87
2022/03/05 04:21:07;;;;;;;45.58;15.90;;;;;;;-1.88;100.00;94227.75;4954933;29;20060;-87
2022/03/05 04:23:33;;;;;;;37.83;15.07;;;;;;;-1.90;100.00;94224.59;4940698;29;20028;-87
2022/03/05 04:25:59;;;;;;;41.83;15.55;;;;;;;-1.90;100.00;94224.59;4955743;29;20035;-87
2022/03/05 04:28:24;;;;;;;46.85;15.95;;;;;;;-2.00;100.00;94222.38;4940895;29;20035;-88
2022/03/05 04:30:50;;;;;;;42.83;13.98;;;;;;;-1.73;100.00;94219.09;4939123;29;20031;-87
2022/03/05 04:33:15;;;;;;;44.08;14.32;;;;;;;-1.87;100.00;94224.19;4954154;29;20043;-87
2022/03/05 04:35:41;;;;;;;45.55;15.05;;;;;;;-1.85;100.00;94222.25;4939318;29;20344;-87
2022/03/05 04:38:06;;;;;;;35.40;15.10;;;;;;;-1.96;100.00;94216.84;4939857;29;20032;-87
2022/03/05 04:40:32;;;;;;;41.88;14.73;;;;;;;-1.88;100.00;94219.28;4939099;29;20046;-87
2022/03/05 04:42:59;;;;;;;39.78;15.32;;;;;;;-1.92;100.00;94220.66;4955160;29;20073;-87
2022/03/05 04:45:25;;;;;;;44.88;14.80;;;;;;;-2.04;100.00;94228.91;4940528;29;20032;-87
2022/03/05 04:47:51;;;;;;;36.17;13.70;;;;;;;-2.01;100.00;94227.69;4940561;29;20168;-87
2022/03/05 04:50:16;;;;;;;35.55;14.45;;;;;;;-2.02;100.00;94241.53;4939734;29;20028;-87
2022/03/05 04:52:42;;;;;;;39.20;14.52;;;;;;;-1.94;100.00;94235.44;4939055;29;20035;-87
2022/03/05 04:55:08;;;;;;;43.05;16.23;;;;;;;-2.16;100.00;94241.47;4939153;29;20023;-87
2022/03/05 04:57:33;;;;;;;36.60;13.63;;;;;;;-2.04;100.00;94246.06;4940653;29;20142;-87
2022/03/05 04:59:59;;;;;;;40.40;15.30;;;;;;;-2.14;100.00;94246.41;4939976;29;20062;-87
2022/03/05 05:02:25;;;;;;;44.47;16.17;;;;;;;-2.22;100.00;94239.66;4938931;29;20027;-87
2022/03/05 05:04:50;;;;;;;33.80;14.55;;;;;;;-2.22;100.00;94238.88;4940143;29;20090;-87
2022/03/05 05:07:15;;;;;;;43.72;14.88;;;;;;;-2.17;100.00;94244.25;4938787;29;20031;-87
2022/03/05 05:09:41;;;;;;;33.50;14.13;;;;;;;-2.01;100.00;94245.66;4938731;29;20028;-87
2022/03/05 05:12:07;;;;;;;43.78;14.98;;;;;;;-2.15;100.00;94242.28;4938637;29;20337;-87
2022/03/05 05:14:33;;;;;;;38.28;15.55;;;;;;;-2.09;100.00;94241.50;4940095;29;20380;-88
2022/03/05 05:16:58;;;;;;;42.80;15.80;;;;;;;-2.19;100.00;94239.28;4939779;29;20031;-87
2022/03/05 05:19:30;;;;;;;41.30;15.82;;;;;;;-2.07;100.00;94247.25;4954823;29;20032;-87
2022/03/05 05:22:00;;;;;;;38.53;14.50;;;;;;;-2.03;100.00;94243.31;4938431;29;20328;-87
2022/03/05 05:24:30;;;;;;;44.75;15.98;;;;;;;-2.06;100.00;94238.56;4954789;29;20115;-87
2022/03/05 05:26:56;;;;;;;39.53;15.07;;;;;;;-2.06;100.00;94240.34;4938817;29;20340;-87
2022/03/05 05:29:22;;;;;;;32.35;13.63;;;;;;;-2.11;100.00;94237.56;4954730;29;20035;-87
2022/03/05 05:31:48;;;;;;;44.67;15.45;;;;;;;-1.97;100.00;94234.06;4954389;29;20131;-87
2022/03/05 05:34:14;;;;;;;40.70;15.55;;;;;;;-2.06;100.00;94242.91;4938484;29;20032;-87
2022/03/05 05:36:41;;;;;;;39.22;15.05;;;;;;;-2.15;100.00;94237.94;4939697;29;20437;-87
2022/03/05 05:39:07;;;;;;;45.58;15.95;;;;;;;-2.19;100.00;94238.50;4938767;29;20035;-87
2022/03/05 05:41:34;;;;;;;46.47;15.77;;;;;;;-2.16;100.00;94241.47;4953975;29;20452;-87
2022/03/05 05:43:59;;;;;;;46.92;16.83;;;;;;;-1.95;100.00;94234.66;4954659;29;20036;-87
2022/03/05 05:46:25;;;;;;;41.33;16.02;;;;;;;-2.10;100.00;94241.69;4954653;29;20058;-87
2022/03/05 05:48:50;;;;;;;35.15;14.85;;;;;;;-2.09;100.00;94243.28;4938251;29;20035;-87
2022/03/05 05:51:16;;;;;;;55.42;15.55;;;;;;;-2.04;100.00;94252.00;4939431;29;20090;-87
2022/03/05 05:53:41;;;;;;;39.85;14.35;;;;;;;-1.96;100.00;94239.97;4954238;29;20122;-87
2022/03/05 05:56:07;;;;;;;42.17;15.95;;;;;;;-1.91;100.00;94251.25;4938297;29;20421;-87
2022/03/05 05:58:32;;;;;;;38.03;15.18;;;;;;;-1.76;100.00;94243.41;4954270;29;20361;-87
2022/03/05 06:00:58;;;;;;;38.88;14.98;;;;;;;-1.45;100.00;94241.28;4938065;29;20460;-87
2022/03/05 06:03:24;;;;;;;40.35;14.93;;;;;;;-1.33;100.00;94244.09;4954499;29;20194;-87
2022/03/05 06:05:49;;;;;;;44.55;16.33;;;;;;;-1.16;100.00;94236.78;4954382;29;20032;-87
2022/03/05 06:08:15;;;;;;;44.97;15.85;;;;;;;-1.13;100.00;94244.13;4954182;29;20108;-87
2022/03/05 06:10:40;;;;;;;35.58;15.50;;;;;;;-0.95;100.00;94240.94;4937997;29;20045;-87
2022/03/05 06:13:05;;;;;;;40.15;16.13;;;;;;;-1.10;100.00;94245.50;4954433;29;20035;-88
2022/03/05 06:15:31;;;;;;;35.55;15.10;;;;;;;-0.99;100.00;94247.47;4939592;29;20032;-87
2022/03/05 06:17:57;;;;;;;46.80;16.90;;;;;;;-0.83;100.00;94251.44;4939554;29;20043;-87
2022/03/05 06:20:23;;;;;;;39.25;15.93;;;;;;;-0.70;100.00;94250.63;4937902;29;20035;-87
2022/03/05 06:22:48;;;;;;;43.65;16.25;;;;;;;-0.60;100.00;94261.31;4954309;29;20035;-87
2022/03/05 06:25:14;;;;;;;45.28;16.30;;;;;;;-0.52;100.00;94260.31;4922098;29;20039;-87
2022/03/05 06:27:39;;;;;;;40.90;16.27;;;;;;;-0.61;100.00;94254.59;4954289;29;20042;-88
2022/03/05 06:30:05;;;;;;;41.33;15.57;;;;;;;-0.48;100.00;94250.44;4938076;29;20030;-87
2022/03/05 06:32:31;;;;;;;34.60;14.70;;;;;;;-0.30;100.00;94260.06;4953898;29;20353;-87
2022/03/05 06:34:56;;;;;;;43.13;16.50;;;;;;;-0.18;100.00;94263.63;4939157;29;20019;-87
2022/03/05 06:37:23;;;;;;;42.20;15.95;;;;;;;-0.21;100.00;94258.09;4954201;28;20035;-88
2022/03/05 06:39:48;;;;;;;42.28;15.40;;;;;;;-0.44;100.00;94265.25;4957080;29;20031;-88
2022/03/05 06:42:14;;;;;;;41.97;15.55;;;;;;;-0.31;100.00;94264.44;4957730;29;20042;-88
2022/03/05 06:44:40;;;;;;;40.33;16.08;;;;;;;0.06;100.00;94265.72;4942630;29;20035;-87
2022/03/05 06:47:06;;;;;;;38.17;15.50;;;;;;;-0.21;100.00;94269.19;4922098;29;20135;-87
2022/03/05 06:49:31;;;;;;;46.70;16.45;;;;;;;-0.13;100.00;94275.13;4938079;29;20038;-87
2022/03/05 06:51:58;;;;;;;39.20;15.98;;;;;;;0.15;100.00;94274.03;4923257;29;20036;-88
2022/03/05 06:54:23;;;;;;;36.70;15.57;;;;;;;0.02;100.00;94275.66;4940741;29;20024;-87
2022/03/05 06:56:49;;;;;;;38.70;15.77;;;;;;;0.06;100.00;94271.69;4957137;29;20086;-88
2022/03/05 06:59:14;;;;;;;43.13;16.65;;;;;;;0.27;100.00;94278.34;4957283;29;20040;-87
2022/03/05 07:01:40;;;;;;;38.75;16.70;;;;;;;0.48;100.00;94278.25;4956624;29;20033;-88
2022/03/05 07:04:05;;;;;;;40.78;16.55;;;;;;;0.85;100.00;94273.28;4956833;29;20035;-88
2022/03/05 07:06:31;;;;;;;40.97;16.73;;;;;;;0.92;100.00;94268.06;4957479;29;20484;-87
2022/03/05 07:09:06;;;;;;;45.72;17.35;;;;;;;0.81;100.00;94279.84;4941200;29;20031;-88
2022/03/05 07:11:32;;;;;;;40.05;15.52;;;;;;;0.72;100.00;94281.88;4956675;29;20118;-86
2022/03/05 07:13:57;;;;;;;38.65;17.42;;;;;;;0.84;100.00;94275.06;4940575;29;20071;-85
2022/03/05 07:16:23;;;;;;;45.35;16.67;;;;;;;0.68;100.00;94278.16;4940822;29;20445;-86
2022/03/05 07:18:48;;;;;;;40.75;16.80;;;;;;;0.73;100.00;94282.69;4940496;29;20035;-86
2022/03/05 07:21:14;;;;;;;35.83;16.30;;;;;;;0.56;100.00;94278.81;4939908;29;20035;-86
2022/03/05 07:23:39;;;;;;;44.42;17.35;;;;;;;0.73;100.00;94287.84;4940165;29;20032;-86
2022/03/05 07:26:05;;;;;;;43.78;17.70;;;;;;;0.81;100.00;94283.25;4956522;29;20120;-86
2022/03/05 07:28:30;;;;;;;40.47;16.05;;;;;;;0.84;100.00;94290.56;4940557;29;20069;-86
2022/03/05 07:30:55;;;;;;;43.50;17.27;;;;;;;0.99;100.00;94282.50;4940180;29;20035;-86
2022/03/05 07:33:21;;;;;;;43.45;18.00;;;;;;;1.02;100.00;94291.63;4941671;29;20031;-86
2022/03/05 07:35:47;;;;;;;44.97;17.52;;;;;;;0.82;100.00;94291.75;4941557;29;20032;-87
2022/03/05 07:38:13;;;;;;;42.50;16.33;;;;;;;0.97;100.00;94289.66;4940747;29;20046;-88
2022/03/05 07:40:38;;;;;;;44.25;17.13;;;;;;;0.93;100.00;94293.66;4940009;29;20031;-87
2022/03/05 07:43:04;;;;;;;40.55;16.35;;;;;;;1.01;100.00;94297.78;4948275;29;20472;-87
2022/03/05 07:45:29;;;;;;;42.42;17.17;;;;;;;1.05;100.00;94293.00;4959495;29;20059;-88
2022/03/05 07:47:56;;;;;;;42.72;17.15;;;;;;;0.92;100.00;94294.66;4958800;28;20036;-87
2022/03/05 07:50:21;;;;;;;40.20;16.48;;;;;;;1.02;100.00;94298.59;4936792;29;20472;-88
2022/03/05 07:52:47;;;;;;;38.65;17.02;;;;;;;0.97;100.00;94299.97;4932802;29;20024;-88
2022/03/05 07:55:13;;;;;;;36.00;15.15;;;;;;;1.03;100.00;94306.09;4936971;29;20026;-87
2022/03/05 07:57:38;;;;;;;38.58;14.98;;;;;;;1.05;100.00;94311.06;4936765;29;20020;-87
2022/03/05 08:00:05;;;;;;;30.08;12.85;;;;;;;0.95;100.00;94314.88;4937442;29;20062;-87
2022/03/05 08:02:32;;;;;;;30.73;13.65;;;;;;;1.19;100.00;94309.97;4924127;29;20429;-87
2022/03/05 08:04:57;;;;;;;33.85;14.85;;;;;;;1.44;100.00;94309.22;4939887;29;20337;-88
2022/03/05 08:07:24;;;;;;;36.33;13.40;;;;;;;1.27;100.00;94312.28;4955817;29;20110;-88
2022/03/05 08:09:49;;;;;;;30.30;12.60;;;;;;;1.33;100.00;94318.41;4939577;29;20390;-88
2022/03/05 08:12:15;;;;;;;29.85;14.30;;;;;;;1.14;100.00;94317.53;4940888;29;20110;-87
2022/03/05 08:14:42;;;;;;;38.22;14.85;;;;;;;1.42;100.00;94318.94;4955728;29;20031;-87
2022/03/05 08:17:07;;;;;;;28.27;13.13;;;;;;;1.34;100.00;94324.38;4955497;29;20429;-87
2022/03/05 08:19:33;;;;;;;29.27;13.10;;;;;;;1.63;100.00;94327.31;4924102;29;20024;-87
2022/03/05 08:21:58;;;;;;;37.20;14.30;;;;;;;1.47;100.00;94328.63;4955165;29;20357;-87
2022/03/05 08:24:24;;;;;;;34.50;14.07;;;;;;;1.46;100.00;94325.28;4953967;29;20047;-87
2022/03/05 08:26:49;;;;;;;31.15;13.38;;;;;;;1.25;100.00;94329.78;4954955;29;20034;-87
2022/03/05 08:29:15;;;;;;;31.15;15.05;;;;;;;1.19;100.00;94332.41;4960060;29;20326;-87
2022/03/05 08:31:40;;;;;;;33.92;14.40;;;;;;;1.23;100.00;94324.03;4959609;29;20042;-87
2022/03/05 08:34:06;;;;;;;37.45;15.07;;;;;;;0.96;100.00;94334.53;4960009;28;20030;-87
2022/03/05 08:36:35;;;;;;;36.80;15.00;;;;;;;1.26;100.00;94333.16;4974208;28;20024;-87
2022/03/05 08:39:00;;;;;;;32.97;13.60;;;;;;;1.47;100.00;94323.47;4974125;28;20035;-86
2022/03/05 08:41:26;;;;;;;32.53;14.75;;;;;;;1.50;100.00;94331.59;4957953;29;20352;-86
2022/03/05 08:43:52;;;;;;;33.13;13.15;;;;;;;1.47;100.00;94329.44;4948770;29;20032;-86
2022/03/05 08:46:18;;;;;;;29.23;13.77;;;;;;;2.06;100.00;94336.88;4939195;29;20460;-87
2022/03/05 08:48:44;;;;;;;27.25;12.63;;;;;;;1.96;99.93;94321.84;4939244;29;20054;-86
2022/03/05 08:51:09;;;;;;;30.15;13.52;;;;;;;1.80;100.00;94323.19;4939855;29;20437;-86
2022/03/05 08:53:35;;;;;;;31.25;11.20;;;;;;;1.86;89.57;94331.09;4938988;29;20086;-86
2022/03/05 08:56:00;;;;;;;23.17;11.98;;;;;;;1.88;100.00;94324.72;4940168;29;20031;-87
2022/03/05 08:58:26;;;;;;;25.17;11.52;;;;;;;1.97;90.07;94317.47;4940171;29;20067;-88
2022/03/05 09:00:53;;;;;;;29.88;12.75;;;;;;;1.69;90.00;94318.72;4922574;29;20028;-87
2022/03/05 09:03:19;;;;;;;26.00;11.52;;;;;;;1.58;95.28;94309.88;4933381;29;20028;-86
2022/03/05 09:05:46;;;;;;;27.27;12.63;;;;;;;1.59;100.00;94314.03;4945115;28;20031;-86
2022/03/05 09:08:14;;;;;;;29.63;12.48;;;;;;;1.78;93.88;94314.06;4945248;29;20039;-87
2022/03/05 09:10:40;;;;;;;25.40;11.57;;;;;;;1.53;90.25;94309.72;4939855;29;20031;-87
2022/03/05 09:13:05;;;;;;;30.38;11.80;;;;;;;1.49;95.14;94311.94;4954966;29;20344;-87
2022/03/05 09:15:31;;;;;;;26.75;11.48;;;;;;;2.03;93.35;94318.41;4940200;29;20432;-87
2022/03/05 09:17:56;;;;;;;26.25;11.15;;;;;;;2.43;89.31;94319.75;4923369;29;20027;-87
2022/03/05 09:20:22;;;;;;;29.77;12.43;;;;;;;2.39;84.36;94320.19;4938474;29;20027;-87
2022/03/05 09:22:47;;;;;;;25.65;11.40;;;;;;;2.70;88.58;94317.66;4954642;29;20071;-87
2022/03/05 09:25:13;;;;;;;23.40;10.98;;;;;;;3.19;90.92;94315.00;4938687;29;20032;-87
2022/03/05 09:27:39;;;;;;;28.67;14.10;;;;;;;2.82;80.46;94315.91;4922982;29;20035;-87
2022/03/05 09:30:06;;;;;;;22.48;10.77;;;;;;;2.91;78.31;94313.81;4922531;29;20347;-87
2022/03/05 09:32:32;;;;;;;26.08;11.98;;;;;;;3.13;80.08;94312.50;4954702;29;20118;-86
2022/03/05 09:34:59;;;;;;;27.40;11.27;;;;;;;2.57;81.39;94312.66;4954542;29;20102;-87
2022/03/05 09:37:26;;;;;;;31.15;12.75;;;;;;;2.48;80.04;94314.75;4954308;29;20441;-87
2022/03/05 09:39:52;;;;;;;32.65;12.65;;;;;;;2.07;82.25;94311.78;4953898;29;20056;-87
2022/03/05 09:42:17;;;;;;;27.38;12.25;;;;;;;2.00;86.22;94311.09;4940180;29;20435;-87
2022/03/05 09:44:42;;;;;;;30.25;12.70;;;;;;;1.92;90.32;94314.75;4939780;29;20338;-87
2022/03/05 09:47:09;;;;;;;26.67;11.98;;;;;;;1.72;94.19;94313.13;4954618;29;20429;-87
2022/03/05 09:49:37;;;;;;;31.33;13.07;;;;;;;1.71;96.98;94314.13;4954498;29;20092;-87
2022/03/05 09:52:03;;;;;;;29.83;13.15;;;;;;;1.60;98.38;94307.09;4954175;29;20079;-86
2022/03/05 09:54:29;;;;;;;32.30;14.07;;;;;;;2.14;98.93;94307.34;4954011;29;20023;-86
2022/03/05 09:56:55;;;;;;;34.90;13.52;;;;;;;2.03;91.98;94311.47;4966647;28;20126;-87
2022/03/05 09:59:21;;;;;;;29.85;12.68;;;;;;;2.77;93.11;94304.63;4958625;28;20332;-87
2022/03/05 10:01:47;;;;;;;27.95;12.98;;;;;;;2.60;82.38;94305.25;4957217;29;20126;-87
2022/03/05 10:04:24;;;;;;;24.60;11.15;;;;;;;2.84;75.96;94294.97;4973430;28;20127;-87
2022/03/05 10:07:09;;;;;;;26.17;12.02;;;;;;;3.14;78.79;94314.88;4973278;28;20034;-87
2022/03/05 10:09:36;;;;;;;29.50;12.38;;;;;;;2.92;76.22;94302.44;4958513;28;20102;-87
2022/03/05 10:12:02;;;;;;;45.08;21.40;;;;;;;3.28;68.08;94301.72;4941156;29;20031;-87
2022/03/05 10:14:27;;;;;;;25.50;11.57;;;;;;;3.39;67.79;94300.97;4977254;28;20445;-87
2022/03/05 10:17:04;;;;;;;40.33;16.17;;;;;;;3.66;67.95;94298.75;4961309;29;20031;-87
2022/03/05 10:19:29;;;;;;;28.13;11.27;;;;;;;3.32;65.87;94305.47;4961337;29;20031;-87
2022/03/05 10:22:04;;;;;;;52.35;22.45;;;;;;;3.22;74.96;94311.16;4960862;29;20031;-87
2022/03/05 10:24:36;;;;;;;26.50;11.93;;;;;;;3.53;65.32;94315.28;4960753;29;20031;-87
2022/03/05 10:27:02;;;;;;;24.95;11.73;;;;;;;3.20;67.08;94301.06;4976988;28;20043;-87
2022/03/05 10:29:35;;;;;;;26.75;13.05;;;;;;;2.67;70.10;94308.53;4960403;29;20440;-87
2022/03/05 10:32:11;;;;;;;30.88;13.65;;;;;;;3.03;71.64;94300.13;4961587;28;20094;-87
2022/03/05 10:34:44;;;;;;;28.02;13.02;;;;;;;3.88;68.97;94303.34;4962156;28;20045;-87
2022/03/05 10:37:10;;;;;;;48.33;22.65;;;;;;;3.54;72.87;94303.13;4961046;28;20037;-87
2022/03/05 10:39:36;;;;;;;28.85;12.27;;;;;;;3.71;66.58;94308.41;4947930;29;20035;-87
2022/03/05 10:42:02;;;;;;;32.03;15.07;;;;;;;3.63;67.23;94306.19;4956978;29;20036;-87
2022/03/05 10:44:28;;;;;;;28.27;13.10;;;;;;;3.33;65.08;94301.88;4957469;29;20032;-87
2022/03/05 10:46:59;;;;;;;28.80;13.77;;;;;;;3.82;69.96;94304.25;4942512;29;20075;-87
2022/03/05 10:49:31;;;;;;;25.73;11.43;;;;;;;3.98;63.41;94302.00;4957051;29;20035;-87
2022/03/05 10:52:00;;;;;;;25.55;12.18;;;;;;;3.99;67.64;94300.97;4969690;28;20065;-87
2022/03/05 10:54:29;;;;;;;26.23;12.43;;;;;;;3.00;64.24;94305.72;4955393;28;20046;-87
2022/03/05 10:56:57;;;;;;;27.85;13.52;;;;;;;3.09;70.53;94299.22;4941090;29;20090;-87
2022/03/05 10:59:22;;;;;;;24.27;12.45;;;;;;;2.89;64.78;94295.13;4941059;29;20055;-87
2022/03/05 11:01:48;;;;;;;24.67;11.50;;;;;;;2.73;66.67;94311.28;4957190;29;20456;-87
2022/03/05 11:04:14;;;;;;;39.05;16.23;;;;;;;3.11;66.21;94300.59;4925192;29;20031;-87
2022/03/05 11:06:44;;;;;;;28.20;11.68;;;;;;;3.58;68.01;94298.25;4937793;29;20035;-87
2022/03/05 11:09:13;;;;;;;19.10;9.63;;;;;;;3.46;60.37;94293.09;4957229;29;20047;-87
2022/03/05 11:11:43;;;;;;;23.60;11.15;;;;;;;3.15;62.75;94294.97;4940665;29;20031;-87
2022/03/05 11:14:14;;;;;;;19.90;9.38;;;;;;;3.07;64.53;94283.13;4957131;29;20047;-87
2022/03/05 11:16:40;;;;;;;20.75;10.25;;;;;;;3.53;66.54;94294.56;4957032;29;20392;-87
2022/03/05 11:19:05;;;;;;;79.47;33.42;;;;;;;3.94;68.61;94294.66;4956662;29;20048;-87
2022/03/05 11:21:31;;;;;;;22.60;10.10;;;;;;;3.79;67.20;94278.78;4956797;29;20043;-87
2022/03/05 11:23:57;;;;;;;21.77;10.48;;;;;;;3.72;66.82;94283.31;4941994;29;20047;-87
2022/03/05 11:26:23;;;;;;;39.63;17.15;;;;;;;3.98;67.83;94284.63;4940564;29;20068;-87
2022/03/05 11:28:50;;;;;;;24.73;10.13;;;;;;;3.91;65.83;94286.56;4956967;29;20039;-87
2022/03/05 11:31:19;;;;;;;19.75;9.40;;;;;;;3.46;68.56;94270.56;4956371;29;20039;-87
2022/03/05 11:33:45;;;;;;;25.58;11.40;;;;;;;3.54;69.58;94269.44;4940982;29;20201;-87
2022/03/05 11:36:38;;;;;;;32.10;11.07;;;;;;;3.61;72.11;94272.72;4956392;29;20031;-87
2022/03/05 11:39:11;;;;;;;26.23;10.18;;;;;;;3.18;68.20;94279.78;4954133;29;20074;-87
2022/03/05 11:41:53;;;;;;;21.52;9.73;;;;;;;3.15;71.46;94263.88;4939917;29;20464;-87
2022/03/05 11:44:21;;;;;;;20.60;9.82;;;;;;;3.49;71.00;94259.75;4943050;29;20048;-86
2022/03/05 11:46:47;;;;;;;28.20;10.82;;;;;;;3.66;71.71;94265.06;4955882;29;20126;-87
2022/03/05 11:49:14;;;;;;;22.73;9.55;;;;;;;3.63;69.45;94255.13;4956485;29;20047;-87
2022/03/05 11:51:55;;;;;;;25.98;10.23;;;;;;;3.92;70.40;94249.25;4939977;29;20032;-87
2022/03/05 11:54:22;;;;;;;28.58;8.90;;;;;;;3.88;69.86;94255.91;4941589;29;20035;-87
2022/03/05 11:57:08;;;;;;;20.33;9.57;;;;;;;3.79;65.61;94242.50;4956365;29;20039;-87
2022/03/05 11:59:39;;;;;;;24.92;8.80;;;;;;;3.24;64.99;94242.63;4955580;29;20035;-87
2022/03/05 12:02:05;;;;;;;23.40;9.60;;;;;;;3.02;69.65;94244.19;4955839;29;20058;-87
2022/03/05 12:04:31;;;;;;;20.92;10.00;;;;;;;3.06;68.27;94248.66;4939089;29;20035;-86
2022/03/05 12:07:03;;;;;;;18.98;9.25;;;;;;;3.11;67.59;94248.00;4950152;28;20039;-85
2022/03/05 12:09:35;;;;;;;26.50;10.13;;;;;;;3.70;74.47;94231.69;4928421;29;20039;-86
2022/03/05 12:12:02;;;;;;;21.48;9.07;;;;;;;3.64;65.64;94235.19;4940513;29;20040;-86
2022/03/05 12:14:59;;;;;;;24.33;9.75;;;;;;;3.99;66.41;94223.97;4937738;29;20182;-86
2022/03/05 12:17:42;;;;;;;23.38;10.57;;;;;;;3.89;65.27;94221.22;4940545;29;20044;-86
2022/03/05 12:20:16;;;;;;;25.30;13.00;;;;;;;5.07;67.10;94214.72;4955216;29;20548;-86
2022/03/05 12:22:55;;;;;;;23.58;9.55;;;;;;;4.95;63.67;94220.00;4940288;29;20319;-86
2022/03/05 12:25:20;;;;;;;23.30;9.85;;;;;;;5.30;59.65;94225.19;4939536;29;20036;-86
2022/03/05 12:27:52;;;;;;;21.67;9.77;;;;;;;5.32;62.76;94208.34;4923626;29;20037;-86
2022/03/05 12:30:19;;;;;;;21.48;9.77;;;;;;;5.60;61.13;94213.69;4954954;29;20039;-86
2022/03/05 12:32:48;;;;;;;21.05;10.35;;;;;;;4.92;59.27;94220.47;4923341;29;20050;-86
2022/03/05 12:35:18;;;;;;;21.45;10.15;;;;;;;4.02;60.58;94212.38;4938853;29;20122;-86
2022/03/05 12:37:44;;;;;;;27.17;10.85;;;;;;;3.86;62.82;94201.72;4940552;29;20441;-86
2022/03/05 12:40:12;;;;;;;23.80;11.20;;;;;;;4.78;62.58;94207.00;4954460;29;20130;-86
2022/03/05 12:42:42;;;;;;;25.40;10.55;;;;;;;3.94;63.06;94195.38;4939126;29;20050;-86
2022/03/05 12:45:26;;;;;;;23.05;10.80;;;;;;;4.35;61.22;94198.75;4940046;29;20055;-86
2022/03/05 12:47:53;;;;;;;24.55;10.75;;;;;;;3.90;57.02;94192.44;4939282;29;20524;-86
2022/03/05 12:50:36;;;;;;;24.27;10.13;;;;;;;4.20;56.63;94185.50;4938634;29;20150;-86
2022/03/05 12:53:07;;;;;;;25.10;10.43;;;;;;;4.42;58.05;94187.44;4949139;29;20031;-86
2022/03/05 12:55:38;;;;;;;27.30;11.05;;;;;;;3.74;60.04;94185.38;4958205;29;20027;-86
2022/03/05 12:58:11;;;;;;;21.50;9.23;;;;;;;3.89;57.03;94190.09;4959271;28;20445;-86
2022/03/05 13:00:37;;;;;;;;;;;;;;;3.63;58.19;94185.16;4959375;28;20110;-86
2022/03/05 13:03:03;;;;;;;21.27;9.43;;;;;;;4.74;57.26;94174.75;4958117;29;19915;-87
2022/03/05 13:05:29;;;;;;;17.52;9.20;;;;;;;5.01;55.83;94157.75;4974303;28;20046;-87